Time;durP1;ratioP1;P1;durP2;ratioP2;P2;SDS_P1;SDS_P2;PMS_P1;PMS_P2;Temp;Humidity;BMP_temperature;BMP_pressure;BME280_temperature;BME280_humidity;BME280_pressure;Samples;Min_cycle;Max_cycle;Signal;HPM_P1;HPM_P2
2021/10/11 00:00:07;;;;;;;1999.90;999.90;;;;;;;10.64;100.00;95936.75;5048464;28;20197;-67
2021/10/11 00:02:35;;;;;;;1999.90;999.90;;;;;;;10.61;100.00;95934.75;5048838;28;20197;-67
2021/10/11 00:05:03;;;;;;;1999.90;999.90;;;;;;;10.58;100.00;95930.88;5048348;28;20258;-68
2021/10/11 00:07:30;;;;;;;1999.90;999.90;;;;;;;10.54;100.00;95931.72;5034254;28;20233;-67
2021/10/11 00:09:59;;;;;;;1999.90;999.90;;;;;;;10.59;100.00;95929.81;5028696;28;20198;-67
2021/10/11 00:12:26;;;;;;;1999.90;999.90;;;;;;;10.60;100.00;95920.97;5028129;28;20205;-68
2021/10/11 00:14:54;;;;;;;1999.90;999.90;;;;;;;10.61;100.00;95911.34;5028584;28;20206;-67
2021/10/11 00:17:21;;;;;;;1999.90;999.90;;;;;;;10.63;100.00;95917.78;5029692;28;20681;-67
2021/10/11 00:19:50;;;;;;;1999.90;999.90;;;;;;;10.65;100.00;95912.31;5032178;28;20198;-67
2021/10/11 00:22:18;;;;;;;1999.90;999.90;;;;;;;10.65;100.00;95907.13;5032493;28;20237;-68
2021/10/11 00:24:45;;;;;;;1999.90;999.90;;;;;;;10.65;100.00;95907.91;5032067;28;20193;-68
2021/10/11 00:27:14;;;;;;;1999.90;999.90;;;;;;;10.57;100.00;95902.56;5032159;28;20200;-68
2021/10/11 00:29:41;;;;;;;1999.90;999.90;;;;;;;10.58;100.00;95902.28;5032019;28;20216;-67
2021/10/11 00:32:09;;;;;;;1999.90;999.90;;;;;;;10.66;100.00;95906.06;5032284;28;20201;-67
2021/10/11 00:34:36;;;;;;;1999.90;999.90;;;;;;;10.65;100.00;95897.50;5031941;28;20198;-67
2021/10/11 00:37:04;;;;;;;1999.90;999.90;;;;;;;10.62;100.00;95894.69;5031943;28;20197;-67
2021/10/11 00:39:31;;;;;;;1999.90;999.90;;;;;;;10.67;100.00;95894.59;5031882;28;20225;-67
2021/10/11 00:41:58;;;;;;;1999.90;999.90;;;;;;;10.60;100.00;95889.00;5032404;28;20194;-68
2021/10/11 00:44:27;;;;;;;1999.90;999.90;;;;;;;10.60;100.00;95894.97;5032309;28;20197;-67
2021/10/11 00:46:55;;;;;;;1999.90;999.90;;;;;;;10.56;100.00;95893.25;5031670;28;20202;-67
2021/10/11 00:49:22;;;;;;;1999.90;999.90;;;;;;;10.55;100.00;95889.88;5031790;28;20258;-67
2021/10/11 00:51:49;;;;;;;1999.90;999.90;;;;;;;10.54;100.00;95892.72;5031674;28;20202;-67
2021/10/11 00:54:17;;;;;;;1999.90;999.90;;;;;;;10.66;100.00;95890.47;5031757;28;20213;-68
2021/10/11 00:56:45;;;;;;;1999.90;999.90;;;;;;;10.60;100.00;95881.22;5031855;28;20202;-66
2021/10/11 00:59:13;;;;;;;1999.90;999.90;;;;;;;10.55;100.00;95879.47;5031396;28;20225;-68
2021/10/11 01:01:41;;;;;;;1999.90;999.90;;;;;;;10.60;100.00;95879.38;5031425;28;20197;-67
2021/10/11 01:04:09;;;;;;;1999.90;999.90;;;;;;;10.62;100.00;95873.88;5031496;28;20205;-67
2021/10/11 01:06:38;;;;;;;1999.90;999.90;;;;;;;10.66;100.00;95878.22;5037846;28;20669;-67
2021/10/11 01:09:06;;;;;;;1999.90;999.90;;;;;;;10.55;100.00;95863.88;5051293;28;20186;-68
2021/10/11 01:11:33;;;;;;;1999.90;999.90;;;;;;;10.53;100.00;95865.97;5051372;28;20207;-68
2021/10/11 01:14:00;;;;;;;1999.90;999.90;;;;;;;10.62;100.00;95866.09;5051372;28;20201;-68
2021/10/11 01:16:27;;;;;;;1999.90;999.90;;;;;;;10.55;100.00;95856.09;5050242;28;20197;-68
2021/10/11 01:18:56;;;;;;;1999.90;999.90;;;;;;;10.61;100.00;95849.72;5051104;28;20280;-66
2021/10/11 01:21:26;;;;;;;1999.90;999.90;;;;;;;10.49;100.00;95848.63;5050823;28;20208;-68
2021/10/11 01:23:55;;;;;;;1999.90;999.90;;;;;;;10.43;100.00;95854.97;5051170;28;20317;-68
2021/10/11 01:26:22;;;;;;;1999.90;999.90;;;;;;;10.47;100.00;95848.13;5050908;28;20704;-66
2021/10/11 01:28:50;;;;;;;1999.90;999.90;;;;;;;10.53;100.00;95852.22;5050265;28;20680;-66
2021/10/11 01:31:18;;;;;;;1999.90;999.90;;;;;;;10.64;100.00;95843.97;5051004;28;20588;-67
2021/10/11 01:33:45;;;;;;;1999.90;999.90;;;;;;;10.66;100.00;95856.69;5051121;28;20202;-67
2021/10/11 01:36:12;;;;;;;1999.90;999.90;;;;;;;10.66;100.00;95841.09;5050693;28;20731;-67
2021/10/11 01:38:41;;;;;;;1999.90;999.90;;;;;;;10.63;100.00;95841.66;5050643;28;20217;-67
2021/10/11 01:41:08;;;;;;;1999.90;999.90;;;;;;;10.67;100.00;95850.41;5050775;28;20624;-67
2021/10/11 01:43:35;;;;;;;1999.90;999.90;;;;;;;10.74;100.00;95835.25;5050622;28;20201;-67
2021/10/11 01:46:02;;;;;;;1999.90;999.90;;;;;;;10.68;100.00;95841.56;5050410;28;20207;-67
2021/10/11 01:48:29;;;;;;;1999.90;999.90;;;;;;;10.64;100.00;95838.00;5050403;28;20204;-68
2021/10/11 01:50:56;;;;;;;1999.90;999.90;;;;;;;10.60;100.00;95837.03;5050517;28;20275;-68
2021/10/11 01:53:23;;;;;;;1999.90;999.90;;;;;;;10.68;100.00;95836.38;5050733;28;20677;-68
2021/10/11 01:55:52;;;;;;;1999.90;999.90;;;;;;;10.70;100.00;95839.47;5050312;28;20197;-68
2021/10/11 01:58:19;;;;;;;1999.90;999.90;;;;;;;10.74;100.00;95838.63;5050537;28;20621;-69
2021/10/11 02:00:46;;;;;;;1999.90;999.90;;;;;;;10.75;100.00;95834.97;5048466;28;20209;-68
2021/10/11 02:03:13;;;;;;;1999.90;999.90;;;;;;;10.74;100.00;95835.25;5049387;28;20205;-68
2021/10/11 02:05:40;;;;;;;1999.90;999.90;;;;;;;10.78;100.00;95833.59;5049153;28;20626;-68
2021/10/11 02:08:07;;;;;;;1999.90;999.90;;;;;;;10.76;100.00;95825.31;5048976;28;20232;-68
2021/10/11 02:10:34;;;;;;;1999.90;999.90;;;;;;;10.82;100.00;95828.59;5049383;28;20700;-68
2021/10/11 02:13:03;;;;;;;1999.90;999.90;;;;;;;10.73;100.00;95823.28;5050291;28;20205;-68
2021/10/11 02:15:30;;;;;;;1999.90;999.90;;;;;;;10.70;100.00;95824.66;5050230;28;20264;-69
2021/10/11 02:17:57;;;;;;;1999.90;999.90;;;;;;;10.70;100.00;95822.06;5049788;28;20240;-68
2021/10/11 02:20:25;;;;;;;1999.90;999.90;;;;;;;10.69;100.00;95827.53;5049781;28;20235;-68
2021/10/11 02:22:52;;;;;;;1999.90;999.90;;;;;;;10.72;100.00;95822.53;5049716;28;20728;-68
2021/10/11 02:25:20;;;;;;;1999.90;999.90;;;;;;;10.71;100.00;95822.78;5049691;28;20208;-68
2021/10/11 02:27:47;;;;;;;1999.90;999.90;;;;;;;10.76;100.00;95818.28;5049782;28;20627;-68
2021/10/11 02:30:16;;;;;;;1999.90;999.90;;;;;;;10.72;100.00;95816.53;5049896;28;20197;-68
2021/10/11 02:32:43;;;;;;;1999.90;999.90;;;;;;;10.65;100.00;95809.13;5049642;28;20209;-69
2021/10/11 02:35:10;;;;;;;1999.90;999.90;;;;;;;10.57;100.00;95811.59;5049832;28;20201;-68
2021/10/11 02:37:37;;;;;;;1999.90;999.90;;;;;;;10.51;100.00;95800.50;5049715;28;20684;-68
2021/10/11 02:40:05;;;;;;;1999.90;999.90;;;;;;;10.46;100.00;95800.59;5049399;28;20228;-69
2021/10/11 02:42:33;;;;;;;1999.90;999.90;;;;;;;10.51;100.00;95799.78;5049721;28;20197;-69
2021/10/11 02:45:00;;;;;;;1999.90;999.90;;;;;;;10.46;100.00;95799.84;5049637;28;20716;-68
2021/10/11 02:47:28;;;;;;;1999.90;999.90;;;;;;;10.34;100.00;95795.09;5049455;28;20201;-68
2021/10/11 02:49:56;;;;;;;1999.90;999.90;;;;;;;10.33;100.00;95799.50;5049248;28;20197;-68
2021/10/11 02:52:23;;;;;;;1999.90;999.90;;;;;;;10.20;100.00;95797.63;5049637;28;20205;-68
2021/10/11 02:54:50;;;;;;;1999.90;999.90;;;;;;;10.27;100.00;95786.88;5049200;28;20208;-68
2021/10/11 02:57:17;;;;;;;1999.90;999.90;;;;;;;10.23;100.00;95797.06;5049249;28;20282;-68
2021/10/11 02:59:44;;;;;;;1999.90;999.90;;;;;;;10.28;100.00;95796.97;5049369;28;20711;-68
2021/10/11 03:02:11;;;;;;;1999.90;999.90;;;;;;;10.26;100.00;95796.47;5049486;28;20205;-68
2021/10/11 03:04:40;;;;;;;1999.90;999.90;;;;;;;10.29;100.00;95795.94;5049411;28;20227;-68
2021/10/11 03:07:07;;;;;;;1999.90;999.90;;;;;;;10.30;100.00;95794.88;5045807;28;20229;-68
2021/10/11 03:09:34;;;;;;;1999.90;999.90;;;;;;;10.27;100.00;95792.06;5049046;28;20193;-68
2021/10/11 03:12:01;;;;;;;1999.90;999.90;;;;;;;10.24;100.00;95797.84;5048981;28;20205;-68
2021/10/11 03:14:28;;;;;;;1999.90;999.90;;;;;;;10.22;100.00;95794.75;5048901;28;20193;-69
2021/10/11 03:16:55;;;;;;;1999.90;999.90;;;;;;;10.26;100.00;95795.75;5049266;28;20204;-68
2021/10/11 03:19:22;;;;;;;1999.90;999.90;;;;;;;10.32;100.00;95792.75;5048869;28;20278;-68
2021/10/11 03:21:51;;;;;;;1999.90;999.90;;;;;;;10.39;100.00;95792.41;5048827;28;20250;-68
2021/10/11 03:24:18;;;;;;;1999.90;999.90;;;;;;;10.39;100.00;95791.63;5049161;28;20204;-68
2021/10/11 03:26:45;;;;;;;1999.90;999.90;;;;;;;10.40;100.00;95785.38;5048847;28;20205;-66
2021/10/11 03:29:12;;;;;;;1999.90;999.90;;;;;;;10.38;100.00;95788.25;5048813;28;20258;-68
2021/10/11 03:31:39;;;;;;;1999.90;999.90;;;;;;;10.40;100.00;95780.19;5048698;28;20197;-68
2021/10/11 03:34:06;;;;;;;1999.90;999.90;;;;;;;10.44;100.00;95778.56;5048638;28;20201;-68
2021/10/11 03:36:33;;;;;;;1999.90;999.90;;;;;;;10.49;100.00;95778.47;5048961;28;20635;-67
2021/10/11 03:39:02;;;;;;;1999.90;999.90;;;;;;;10.36;100.00;95774.81;5048486;28;20648;-68
2021/10/11 03:41:29;;;;;;;1999.90;999.90;;;;;;;10.43;100.00;95775.19;5048894;28;20201;-68
2021/10/11 03:43:56;;;;;;;1999.90;999.90;;;;;;;10.38;100.00;95774.50;5048940;28;20197;-68
2021/10/11 03:46:24;;;;;;;1999.90;999.90;;;;;;;10.35;100.00;95768.06;5048871;28;20262;-68
2021/10/11 03:48:51;;;;;;;1999.90;999.90;;;;;;;10.27;100.00;95764.28;5048917;28;20288;-68
2021/10/11 03:51:21;;;;;;;1999.90;999.90;;;;;;;10.32;100.00;95759.00;5049277;28;20201;-68
2021/10/11 03:53:48;;;;;;;1999.90;999.90;;;;;;;10.30;100.00;95760.34;5052516;28;20212;-68
2021/10/11 03:56:17;;;;;;;1999.90;999.90;;;;;;;10.30;100.00;95761.13;5052600;28;20643;-68
2021/10/11 03:58:44;;;;;;;1999.90;999.90;;;;;;;10.30;100.00;95758.53;5052817;28;20225;-68
2021/10/11 04:01:12;;;;;;;1999.90;999.90;;;;;;;10.17;100.00;95761.84;5052424;28;20201;-68
2021/10/11 04:03:39;;;;;;;1999.90;999.90;;;;;;;10.18;100.00;95750.41;5052405;28;20197;-68
2021/10/11 04:06:07;;;;;;;1999.90;999.90;;;;;;;10.11;100.00;95749.19;5052253;28;20241;-68
2021/10/11 04:08:36;;;;;;;1999.90;999.90;;;;;;;10.10;100.00;95745.81;5052062;28;20237;-68
2021/10/11 04:11:07;;;;;;;1999.90;999.90;;;;;;;10.11;100.00;95757.72;5052330;28;20675;-68
2021/10/11 04:13:35;;;;;;;1999.90;999.90;;;;;;;10.04;100.00;95746.94;5052257;28;20189;-68
2021/10/11 04:16:02;;;;;;;1999.90;999.90;;;;;;;10.05;100.00;95747.72;5052172;28;20209;-67
2021/10/11 04:18:30;;;;;;;1999.90;999.90;;;;;;;10.05;100.00;95745.13;5052103;28;20201;-68
2021/10/11 04:20:57;;;;;;;1999.90;999.90;;;;;;;10.00;100.00;95745.97;5052286;28;20258;-68
2021/10/11 04:23:24;;;;;;;1999.90;999.90;;;;;;;10.05;100.00;95742.53;5052306;28;20708;-68
2021/10/11 04:25:51;;;;;;;1999.90;999.90;;;;;;;10.05;100.00;95743.31;5052276;28;20201;-68
2021/10/11 04:28:18;;;;;;;1999.90;999.90;;;;;;;9.93;100.00;95741.13;5052366;28;20208;-68
2021/10/11 04:30:47;;;;;;;1999.90;999.90;;;;;;;10.02;100.00;95738.66;5052121;28;20208;-68
2021/10/11 04:33:15;;;;;;;1999.90;999.90;;;;;;;9.89;100.00;95739.38;5052213;28;20242;-69
2021/10/11 04:35:43;;;;;;;1999.90;999.90;;;;;;;9.99;100.00;95735.88;5051986;28;20211;-67
2021/10/11 04:38:10;;;;;;;1999.90;999.90;;;;;;;9.91;100.00;95732.09;5051934;28;20712;-68
2021/10/11 04:40:37;;;;;;;1999.90;999.90;;;;;;;9.93;100.00;95743.72;5051908;28;20236;-67
2021/10/11 04:43:05;;;;;;;1999.90;999.90;;;;;;;9.86;100.00;95734.78;5051928;28;20198;-67
2021/10/11 04:45:33;;;;;;;1999.90;999.90;;;;;;;9.80;100.00;95735.91;5051579;28;20200;-67
2021/10/11 04:48:03;;;;;;;1999.90;999.90;;;;;;;9.82;100.00;95734.53;5051556;28;20201;-68
2021/10/11 04:50:32;;;;;;;1999.90;999.90;;;;;;;9.82;100.00;95733.78;5051458;28;20190;-67
2021/10/11 04:53:00;;;;;;;1999.90;999.90;;;;;;;9.74;100.00;95732.59;5051424;28;20201;-67
2021/10/11 04:55:28;;;;;;;1999.90;999.90;;;;;;;9.80;100.00;95725.50;5051327;28;20200;-68
2021/10/11 04:57:56;;;;;;;1999.90;999.90;;;;;;;9.73;100.00;95731.06;5051483;28;20205;-68
2021/10/11 05:00:23;;;;;;;1999.90;999.90;;;;;;;9.74;100.00;95731.81;5051412;28;20265;-68
2021/10/11 05:02:51;;;;;;;1999.90;999.90;;;;;;;9.66;100.00;95735.06;5051219;28;20208;-68
2021/10/11 05:05:20;;;;;;;1999.90;999.90;;;;;;;9.65;100.00;95736.09;5050077;28;20201;-67
2021/10/11 05:07:47;;;;;;;1999.90;999.90;;;;;;;9.63;100.00;95735.59;5051015;28;20232;-68
2021/10/11 05:10:14;;;;;;;1999.90;999.90;;;;;;;9.66;100.00;95729.88;5051113;28;20201;-68
2021/10/11 05:12:41;;;;;;;1999.90;999.90;;;;;;;9.68;100.00;95730.34;5050430;28;20197;-68
2021/10/11 05:15:09;;;;;;;1999.90;999.90;;;;;;;9.70;100.00;95730.84;5051084;28;20197;-68
2021/10/11 05:17:36;;;;;;;1999.90;999.90;;;;;;;9.65;100.00;95733.50;5050932;28;20221;-68
2021/10/11 05:20:04;;;;;;;1999.90;999.90;;;;;;;9.72;100.00;95736.50;5050838;28;20786;-68
2021/10/11 05:22:33;;;;;;;1999.90;999.90;;;;;;;9.71;100.00;95735.00;5050807;28;20681;-68
2021/10/11 05:25:00;;;;;;;1999.90;999.90;;;;;;;9.67;100.00;95732.16;5050837;28;20204;-68
2021/10/11 05:27:27;;;;;;;1999.90;999.90;;;;;;;9.67;100.00;95734.75;5050811;28;20691;-68
2021/10/11 05:29:54;;;;;;;1999.90;999.90;;;;;;;9.70;100.00;95731.63;5050655;28;20206;-67
2021/10/11 05:32:21;;;;;;;1999.90;999.90;;;;;;;9.80;100.00;95731.47;5050639;28;20204;-67
2021/10/11 05:34:49;;;;;;;1999.90;999.90;;;;;;;9.74;100.00;95740.38;5050786;28;20201;-68
2021/10/11 05:37:16;;;;;;;1999.90;999.90;;;;;;;9.80;100.00;95747.06;5050855;28;20661;-68
2021/10/11 05:39:45;;;;;;;1999.90;999.90;;;;;;;9.80;100.00;95746.28;5050665;28;20220;-69
2021/10/11 05:42:12;;;;;;;1999.90;999.90;;;;;;;9.74;100.00;95748.16;5050792;28;20256;-68
2021/10/11 05:44:39;;;;;;;1999.90;999.90;;;;;;;9.82;100.00;95733.78;5050679;28;20201;-68
2021/10/11 05:47:07;;;;;;;1999.90;999.90;;;;;;;9.76;100.00;95746.03;5050640;28;20634;-68
2021/10/11 05:49:34;;;;;;;1999.90;999.90;;;;;;;9.79;100.00;95740.31;5050639;28;20723;-68
2021/10/11 05:52:01;;;;;;;1999.90;999.90;;;;;;;9.81;100.00;95738.19;5050270;28;20267;-68
2021/10/11 05:54:28;;;;;;;1999.90;999.90;;;;;;;9.76;100.00;95743.44;5050350;28;20258;-68
2021/10/11 05:56:57;;;;;;;1999.90;999.90;;;;;;;9.80;100.00;95741.84;5050150;28;20280;-68
2021/10/11 05:59:25;;;;;;;1999.90;999.90;;;;;;;9.81;100.00;95735.59;5050392;28;20228;-68
2021/10/11 06:01:52;;;;;;;1999.90;999.90;;;;;;;9.86;100.00;95732.19;5050128;28;20205;-67
2021/10/11 06:04:19;;;;;;;1999.90;999.90;;;;;;;9.86;100.00;95742.56;5050054;28;20189;-68
2021/10/11 06:06:46;;;;;;;1999.90;999.90;;;;;;;9.94;100.00;95744.50;5049906;28;20228;-68
2021/10/11 06:09:13;;;;;;;1999.90;999.90;;;;;;;9.93;100.00;95745.56;5049786;28;20193;-68
2021/10/11 06:11:41;;;;;;;1999.90;999.90;;;;;;;9.96;100.00;95739.81;5050179;28;20205;-68
2021/10/11 06:14:10;;;;;;;1999.90;999.90;;;;;;;9.89;100.00;95744.59;5049679;28;20312;-68
2021/10/11 06:16:37;;;;;;;1999.90;999.90;;;;;;;9.97;100.00;95741.34;5049382;28;20205;-68
2021/10/11 06:19:04;;;;;;;1999.90;999.90;;;;;;;9.97;100.00;95746.53;5049808;28;20236;-67
2021/10/11 06:21:34;;;;;;;1999.90;999.90;;;;;;;10.09;100.00;95744.28;5049514;28;20317;-68
2021/10/11 06:24:02;;;;;;;1999.90;999.90;;;;;;;10.07;100.00;95746.38;5049556;28;20185;-69
2021/10/11 06:26:29;;;;;;;1999.90;999.90;;;;;;;10.01;100.00;95749.34;5049924;28;20197;-68
2021/10/11 06:28:56;;;;;;;1999.90;999.90;;;;;;;10.08;100.00;95750.53;5049912;28;20205;-68
2021/10/11 06:31:25;;;;;;;1999.90;999.90;;;;;;;10.16;100.00;95744.69;5049583;28;20883;-68
2021/10/11 06:33:52;;;;;;;1999.90;999.90;;;;;;;10.13;100.00;95749.66;5049588;28;20212;-68
2021/10/11 06:36:19;;;;;;;1999.90;999.90;;;;;;;10.17;100.00;95751.44;5049672;28;20302;-69
2021/10/11 06:38:46;;;;;;;1999.90;999.90;;;;;;;10.22;100.00;95753.97;5049475;28;20197;-69
2021/10/11 06:41:14;;;;;;;1999.90;999.90;;;;;;;10.22;100.00;95748.78;5049511;28;20750;-68
2021/10/11 06:43:41;;;;;;;1999.90;999.90;;;;;;;10.21;100.00;95747.22;5049554;28;20211;-68
2021/10/11 06:46:08;;;;;;;1999.90;999.90;;;;;;;10.26;100.00;95751.59;5049423;28;20220;-68
2021/10/11 06:48:37;;;;;;;1999.90;999.90;;;;;;;10.23;100.00;95752.91;5049340;28;20212;-69
2021/10/11 06:51:06;;;;;;;1999.90;999.90;;;;;;;10.23;100.00;95745.13;5049201;28;20193;-69
2021/10/11 06:53:33;;;;;;;1999.90;999.90;;;;;;;10.20;100.00;95750.91;5049555;28;20590;-69
2021/10/11 06:56:00;;;;;;;1999.90;999.90;;;;;;;10.28;100.00;95747.63;5049343;28;20205;-69
2021/10/11 06:58:27;;;;;;;1999.90;999.90;;;;;;;10.35;100.00;95755.06;5049684;28;20197;-69
2021/10/11 07:00:54;;;;;;;1999.90;999.90;;;;;;;10.31;100.00;95747.06;5049678;28;20306;-68
2021/10/11 07:03:24;;;;;;;1999.90;999.90;;;;;;;10.26;100.00;95747.13;5049177;28;20216;-67
2021/10/11 07:05:57;;;;;;;1999.90;999.90;;;;;;;10.42;100.00;95749.50;5049041;28;20718;-68
2021/10/11 07:08:24;;;;;;;1999.90;999.90;;;;;;;10.47;100.00;95746.81;5049093;28;20239;-68
2021/10/11 07:10:54;;;;;;;1999.90;999.90;;;;;;;10.44;100.00;95747.38;5048841;28;20197;-68
2021/10/11 07:13:22;;;;;;;1999.90;999.90;;;;;;;10.48;100.00;95745.75;5047913;28;20284;-68
2021/10/11 07:15:49;;;;;;;1999.90;999.90;;;;;;;10.50;100.00;95752.22;5048823;28;20208;-67
2021/10/11 07:18:16;;;;;;;1999.90;999.90;;;;;;;10.51;100.00;95750.41;5048820;28;20201;-67
2021/10/11 07:20:45;;;;;;;1999.90;999.90;;;;;;;10.64;100.00;95754.84;5048720;28;20227;-68
2021/10/11 07:23:14;;;;;;;1999.90;999.90;;;;;;;10.56;100.00;95745.13;5048806;28;20197;-68
2021/10/11 07:25:42;;;;;;;1999.90;999.90;;;;;;;10.61;100.00;95745.03;5049021;28;20201;-67
2021/10/11 07:28:10;;;;;;;1999.90;999.90;;;;;;;10.67;100.00;95739.44;5047356;28;20704;-67
2021/10/11 07:30:37;;;;;;;1999.90;999.90;;;;;;;10.73;100.00;95745.31;5047977;28;20246;-67
2021/10/11 07:33:05;;;;;;;1999.90;999.90;;;;;;;10.78;100.00;95745.22;5049074;28;20197;-68
2021/10/11 07:35:33;;;;;;;1999.90;999.90;;;;;;;10.76;100.00;95747.34;5048666;28;20201;-68
2021/10/11 07:38:01;;;;;;;1999.90;999.90;;;;;;;10.79;100.00;95738.97;5049171;28;20201;-68
2021/10/11 07:40:29;;;;;;;1999.90;999.90;;;;;;;10.88;100.00;95734.63;5048790;28;20229;-68
2021/10/11 07:42:56;;;;;;;1999.90;999.90;;;;;;;10.78;100.00;95740.03;5048622;28;20205;-67
2021/10/11 07:45:24;;;;;;;1999.90;999.90;;;;;;;10.81;100.00;95734.25;5048594;28;20211;-68
2021/10/11 07:47:51;;;;;;;1999.90;999.90;;;;;;;10.76;100.00;95736.94;5040465;28;20205;-67
2021/10/11 07:50:18;;;;;;;1999.90;999.90;;;;;;;10.87;100.00;95735.69;5044567;28;20216;-68
2021/10/11 07:52:45;;;;;;;1999.90;999.90;;;;;;;10.83;100.00;95733.97;5048537;28;20200;-67
2021/10/11 07:55:13;;;;;;;1999.90;999.90;;;;;;;10.86;100.00;95728.94;5048782;28;20207;-67
2021/10/11 07:57:42;;;;;;;1999.90;999.90;;;;;;;10.79;100.00;95728.56;5048501;28;20201;-67
2021/10/11 08:00:13;;;;;;;1999.90;999.90;;;;;;;10.82;100.00;95724.63;5048243;28;20223;-67
2021/10/11 08:02:41;;;;;;;1999.90;999.90;;;;;;;10.78;100.00;95725.19;5048489;28;20193;-67
2021/10/11 08:05:09;;;;;;;1999.90;999.90;;;;;;;10.98;100.00;95724.06;5048420;28;20665;-67
2021/10/11 08:07:36;;;;;;;1999.90;999.90;;;;;;;10.96;100.00;95720.97;5048132;28;20257;-68
2021/10/11 08:10:04;;;;;;;1999.90;999.90;;;;;;;10.93;100.00;95721.53;5048524;28;21095;-68
2021/10/11 08:12:32;;;;;;;1999.90;999.90;;;;;;;10.98;100.00;95720.69;5048858;28;20211;-69
2021/10/11 08:15:00;;;;;;;1999.90;999.90;;;;;;;10.95;100.00;95719.44;5048385;28;20197;-68
2021/10/11 08:17:27;;;;;;;1999.90;999.90;;;;;;;10.96;100.00;95720.22;5048328;28;20193;-68
2021/10/11 08:19:54;;;;;;;1999.90;999.90;;;;;;;10.89;100.00;95715.38;5048320;28;20696;-67
2021/10/11 08:22:22;;;;;;;1999.90;999.90;;;;;;;10.92;100.00;95714.81;5048333;28;20685;-67
2021/10/11 08:24:50;;;;;;;1999.90;999.90;;;;;;;11.03;100.00;95710.94;5048177;28;20208;-67
2021/10/11 08:27:18;;;;;;;1999.90;999.90;;;;;;;11.04;100.00;95706.53;5048128;28;20198;-67
2021/10/11 08:29:50;;;;;;;1999.90;999.90;;;;;;;10.95;100.00;95711.63;5048215;28;20649;-68
2021/10/11 08:32:19;;;;;;;1999.90;999.90;;;;;;;11.05;100.00;95698.44;5048144;28;20193;-68
2021/10/11 08:34:46;;;;;;;1999.90;999.90;;;;;;;11.14;100.00;95701.88;5048368;28;20208;-67
2021/10/11 08:37:14;;;;;;;1999.90;999.90;;;;;;;11.14;100.00;95701.13;5048366;28;20719;-68
2021/10/11 08:39:42;;;;;;;1999.90;999.90;;;;;;;11.25;100.00;95709.50;5051365;28;20216;-68
2021/10/11 08:42:11;;;;;;;1999.90;999.90;;;;;;;11.37;100.00;95707.13;5051894;28;20257;-68
2021/10/11 08:44:38;;;;;;;1999.90;999.90;;;;;;;11.47;100.00;95701.72;5051586;28;20661;-68
2021/10/11 08:47:05;;;;;;;1999.90;999.90;;;;;;;11.58;100.00;95700.44;5051963;28;20251;-67
2021/10/11 08:49:33;;;;;;;1999.90;999.90;;;;;;;11.70;100.00;95698.09;5051635;28;20205;-68
2021/10/11 08:52:00;;;;;;;1999.90;999.90;;;;;;;11.75;100.00;95692.81;5051834;28;20189;-68
2021/10/11 08:54:28;;;;;;;1999.90;999.90;;;;;;;11.83;100.00;95686.88;5051550;28;20938;-68
2021/10/11 08:56:55;;;;;;;1999.90;999.90;;;;;;;11.84;100.00;95701.47;5051361;28;20197;-68
2021/10/11 08:59:29;;;;;;;1999.90;999.90;;;;;;;11.98;100.00;95699.56;5051410;28;20235;-68
2021/10/11 09:02:04;;;;;;;1999.90;999.90;;;;;;;12.02;100.00;95704.94;5051490;28;20223;-67
2021/10/11 09:04:33;;;;;;;1999.90;999.90;;;;;;;12.04;100.00;95705.44;5051442;28;20200;-67
2021/10/11 09:07:05;;;;;;;1999.90;999.90;;;;;;;12.09;100.00;95702.69;5050893;28;20240;-68
2021/10/11 09:09:32;;;;;;;1999.90;999.90;;;;;;;12.00;100.00;95707.84;5051196;28;20189;-68
2021/10/11 09:12:00;;;;;;;1999.90;999.90;;;;;;;11.95;100.00;95697.56;5051290;28;20208;-68
2021/10/11 09:14:27;;;;;;;1999.90;999.90;;;;;;;11.94;100.00;95703.06;5049710;28;20212;-67
2021/10/11 09:17:02;;;;;;;1999.90;999.90;;;;;;;11.79;100.00;95695.59;5050875;28;20228;-66
2021/10/11 09:19:35;;;;;;;1999.90;999.90;;;;;;;11.71;100.00;95699.63;5050941;28;20190;-67
2021/10/11 09:22:03;;;;;;;1999.90;999.90;;;;;;;11.77;100.00;95695.88;5050851;28;20267;-68
2021/10/11 09:24:30;;;;;;;1999.90;999.90;;;;;;;11.74;100.00;95696.47;5051224;28;20212;-68
2021/10/11 09:26:59;;;;;;;1999.90;999.90;;;;;;;11.91;100.00;95699.19;5051177;28;20204;-68
2021/10/11 09:29:31;;;;;;;1999.90;999.90;;;;;;;12.00;100.00;95691.47;5050930;28;20200;-67
2021/10/11 09:32:01;;;;;;;1999.90;999.90;;;;;;;12.00;100.00;95689.59;5050644;28;20194;-68
2021/10/11 09:34:28;;;;;;;1999.90;999.90;;;;;;;12.11;100.00;95692.72;5050584;28;20665;-68
2021/10/11 09:37:01;;;;;;;1999.90;999.90;;;;;;;12.16;100.00;95689.22;5050917;28;20243;-68
2021/10/11 09:39:30;;;;;;;1999.90;999.90;;;;;;;12.14;100.00;95683.56;5050570;28;20211;-68
2021/10/11 09:41:58;;;;;;;1999.90;999.90;;;;;;;12.13;100.00;95685.41;5050694;28;20229;-67
2021/10/11 09:44:26;;;;;;;1999.90;999.90;;;;;;;12.16;100.00;95678.81;5050477;28;20197;-67
2021/10/11 09:46:56;;;;;;;1999.90;999.90;;;;;;;12.19;100.00;95678.22;5050522;28;20193;-68
2021/10/11 09:49:24;;;;;;;1999.90;999.90;;;;;;;12.17;100.00;95685.56;5050174;28;20189;-67
2021/10/11 09:51:53;;;;;;;1999.90;999.90;;;;;;;11.99;100.00;95680.25;5050315;28;20205;-68
2021/10/11 09:54:25;;;;;;;1999.90;999.90;;;;;;;11.96;100.00;95680.84;5050586;28;20224;-68
2021/10/11 09:56:52;;;;;;;1999.90;999.90;;;;;;;12.05;100.00;95680.91;5050774;28;20194;-68
2021/10/11 09:59:19;;;;;;;1999.90;999.90;;;;;;;12.00;100.00;95673.97;5050863;28;20194;-67
2021/10/11 10:01:47;;;;;;;1999.90;999.90;;;;;;;12.06;100.00;95672.78;5050339;28;20229;-67
2021/10/11 10:04:17;;;;;;;1999.90;999.90;;;;;;;12.13;100.00;95674.97;5050276;28;20197;-68
2021/10/11 10:06:47;;;;;;;1999.90;999.90;;;;;;;12.11;100.00;95665.91;5049903;28;20229;-68
2021/10/11 10:09:17;;;;;;;1999.90;999.90;;;;;;;12.10;100.00;95662.56;5050425;28;20283;-67
2021/10/11 10:11:46;;;;;;;1999.90;999.90;;;;;;;12.08;100.00;95657.63;5050322;28;20281;-68
2021/10/11 10:14:20;;;;;;;1999.90;999.90;;;;;;;12.07;100.00;95656.09;5050068;28;20202;-68
2021/10/11 10:16:50;;;;;;;1999.90;999.90;;;;;;;12.01;100.00;95654.69;5049844;28;20207;-68
2021/10/11 10:19:18;;;;;;;1999.90;999.90;;;;;;;11.90;100.00;95644.81;5049766;28;20252;-67
2021/10/11 10:21:45;;;;;;;1999.90;999.90;;;;;;;11.91;100.00;95654.16;5050147;28;20247;-68
2021/10/11 10:24:23;;;;;;;1999.90;999.90;;;;;;;11.86;100.00;95649.06;5049772;28;20201;-67
2021/10/11 10:27:03;;;;;;;1999.90;999.90;;;;;;;11.82;100.00;95648.91;5050157;28;20193;-67
2021/10/11 10:29:41;;;;;;;1999.90;999.90;;;;;;;11.81;100.00;95649.94;5049777;28;20192;-67
2021/10/11 10:32:10;;;;;;;1999.90;999.90;;;;;;;11.83;100.00;95645.22;5049539;28;20185;-67
2021/10/11 10:34:37;;;;;;;1999.90;999.90;;;;;;;11.91;100.00;95641.91;5049726;28;20205;-67
2021/10/11 10:37:06;;;;;;;1999.90;999.90;;;;;;;11.98;100.00;95644.09;5049789;28;20197;-68
2021/10/11 10:39:38;;;;;;;1999.90;999.90;;;;;;;11.99;100.00;95651.63;5049405;28;20193;-68
2021/10/11 10:42:09;;;;;;;1999.90;999.90;;;;;;;12.10;100.00;95643.56;5049599;28;20228;-68
2021/10/11 10:44:45;;;;;;;1999.90;999.90;;;;;;;12.06;100.00;95633.72;5049489;28;20185;-67
2021/10/11 10:47:12;;;;;;;1999.90;999.90;;;;;;;12.18;100.00;95633.16;5049928;28;20203;-68
2021/10/11 10:49:44;;;;;;;1999.90;999.90;;;;;;;12.18;100.00;95627.19;5049298;28;20200;-67